Time;durP1;ratioP1;P1;durP2;ratioP2;P2;SDS_P1;SDS_P2;PMS_P1;PMS_P2;Temp;Humidity;BMP_temperature;BMP_pressure;BME280_temperature;BME280_humidity;BME280_pressure;Samples;Min_cycle;Max_cycle;Signal;HPM_P1;HPM_P2
2024/03/30 00:01:48;;;;;;;4.13;2.40;;;11.40;99.90;;;;;;5054459;28;20048;-84
2024/03/30 00:04:13;;;;;;;7.85;3.55;;;11.30;99.90;;;;;;5036701;28;20040;-84
2024/03/30 00:06:39;;;;;;;4.90;3.03;;;11.30;99.90;;;;;;5037914;28;20179;-83
2024/03/30 00:09:04;;;;;;;4.85;3.00;;;11.30;99.90;;;;;;5056315;28;20068;-83
2024/03/30 00:11:33;;;;;;;6.50;3.55;;;11.20;99.90;;;;;;5049289;28;20123;-84
2024/03/30 00:13:59;;;;;;;6.38;2.90;;;11.30;99.90;;;;;;5042990;28;20033;-82
2024/03/30 00:16:27;;;;;;;5.15;3.15;;;11.20;99.90;;;;;;5045527;28;20031;-83
2024/03/30 00:18:53;;;;;;;4.00;2.63;;;11.10;99.90;;;;;;5038624;28;20032;-86
2024/03/30 00:21:19;;;;;;;5.20;2.33;;;11.10;99.90;;;;;;5040334;28;20108;-84
2024/03/30 00:23:45;;;;;;;7.85;3.35;;;11.60;99.90;;;;;;5046483;28;20033;-84
2024/03/30 00:26:11;;;;;;;4.20;2.45;;;12.00;99.90;;;;;;5065721;28;20036;-85
2024/03/30 00:28:37;;;;;;;5.85;3.35;;;;;;;;;;5064501;28;20062;-86
2024/03/30 00:31:02;;;;;;;6.70;4.00;;;11.20;99.90;;;;;;5056570;28;20033;-84
2024/03/30 00:33:28;;;;;;;6.57;3.58;;;11.20;99.90;;;;;;5070940;28;20018;-85
2024/03/30 00:35:55;;;;;;;6.13;3.30;;;12.00;99.90;;;;;;5064322;28;20061;-83
2024/03/30 00:38:21;;;;;;;7.63;3.70;;;11.00;99.90;;;;;;5068928;28;20376;-84
2024/03/30 00:40:47;;;;;;;6.70;3.22;;;11.00;99.90;;;;;;5078247;28;20044;-85
2024/03/30 00:43:13;;;;;;;7.22;3.25;;;11.00;99.90;;;;;;5079401;28;20017;-85
2024/03/30 00:45:39;;;;;;;7.63;3.78;;;10.90;99.90;;;;;;5061880;28;20043;-84
2024/03/30 00:48:08;;;;;;;9.02;3.58;;;11.50;99.90;;;;;;5054240;28;20297;-86
2024/03/30 00:50:34;;;;;;;7.60;3.47;;;10.80;99.90;;;;;;5070968;28;20028;-85
2024/03/30 00:53:02;;;;;;;5.85;3.00;;;10.70;99.90;;;;;;5068753;28;20480;-87
2024/03/30 00:55:27;;;;;;;7.03;4.25;;;10.80;99.90;;;;;;5053404;28;20039;-86
2024/03/30 00:57:56;;;;;;;6.90;3.88;;;10.60;99.90;;;;;;5054703;28;20013;-85
2024/03/30 01:00:22;;;;;;;8.48;3.95;;;10.80;99.90;;;;;;5057578;28;20017;-85
2024/03/30 01:02:48;;;;;;;9.15;3.63;;;10.60;99.90;;;;;;5050854;28;20082;-86
2024/03/30 01:05:15;;;;;;;5.68;3.58;;;10.60;99.90;;;;;;5062872;28;20021;-87
2024/03/30 01:07:40;;;;;;;7.63;3.95;;;10.50;99.90;;;;;;5063153;28;20081;-86
2024/03/30 01:10:08;;;;;;;6.95;3.92;;;12.00;99.90;;;;;;5047478;28;20029;-86
2024/03/30 01:12:34;;;;;;;6.22;3.55;;;10.40;99.90;;;;;;5067047;28;20013;-87
2024/03/30 01:15:00;;;;;;;7.85;3.42;;;10.40;99.90;;;;;;5063070;28;20036;-87
2024/03/30 01:17:26;;;;;;;7.15;3.55;;;10.30;99.90;;;;;;5048257;28;20030;-89
2024/03/30 01:19:52;;;;;;;7.13;3.83;;;10.30;99.90;;;;;;5072801;28;20043;-87
2024/03/30 01:22:18;;;;;;;6.78;2.92;;;10.30;99.90;;;;;;5060041;28;20030;-87
2024/03/30 01:24:44;;;;;;;4.65;3.15;;;10.30;99.90;;;;;;5045309;28;20157;-85
2024/03/30 01:27:21;;;;;;;7.63;3.55;;;10.20;99.90;;;;;;5046203;28;20032;-87
2024/03/30 01:29:49;;;;;;;5.05;3.63;;;10.20;99.90;;;;;;5047732;28;20092;-87
2024/03/30 01:32:15;;;;;;;5.47;3.40;;;10.20;99.90;;;;;;5047154;28;20029;-88
2024/03/30 01:34:41;;;;;;;4.70;3.05;;;10.20;99.90;;;;;;5045066;28;20056;-87
2024/03/30 01:37:07;;;;;;;7.63;2.90;;;10.20;99.90;;;;;;5045719;28;20053;-86
2024/03/30 01:39:33;;;;;;;8.27;3.47;;;10.10;99.90;;;;;;5066142;28;20017;-87
2024/03/30 01:41:59;;;;;;;7.55;3.58;;;10.30;99.90;;;;;;5045823;28;20021;-86
2024/03/30 01:44:25;;;;;;;4.13;2.75;;;;;;;;;;5048052;28;20031;-88
2024/03/30 01:46:52;;;;;;;5.50;2.58;;;10.10;99.90;;;;;;5045750;28;20025;-87
2024/03/30 01:49:19;;;;;;;4.70;2.53;;;10.10;99.90;;;;;;5062261;28;20055;-86
2024/03/30 01:51:46;;;;;;;5.10;3.17;;;12.70;99.90;;;;;;5041435;28;20025;-88
2024/03/30 01:54:13;;;;;;;5.13;2.67;;;11.20;99.90;;;;;;5061223;28;20033;-85
2024/03/30 01:56:40;;;;;;;4.60;2.45;;;10.40;99.90;;;;;;5038352;28;20367;-86
2024/03/30 01:59:06;;;;;;;4.20;2.63;;;10.00;99.90;;;;;;5035352;28;20036;-88
2024/03/30 02:01:32;;;;;;;5.00;2.63;;;10.80;99.90;;;;;;5051364;28;20044;-87
2024/03/30 02:03:59;;;;;;;4.88;2.97;;;10.00;99.90;;;;;;5042416;28;20032;-87
2024/03/30 02:06:26;;;;;;;5.72;3.00;;;10.70;99.90;;;;;;5046037;28;20021;-86
2024/03/30 02:08:54;;;;;;;5.28;2.90;;;11.00;99.90;;;;;;5041716;28;20109;-86
2024/03/30 02:11:20;;;;;;;4.90;2.90;;;10.80;99.90;;;;;;5044497;28;20024;-86
2024/03/30 02:13:46;;;;;;;5.50;3.22;;;10.00;99.90;;;;;;5040189;28;20051;-88
2024/03/30 02:16:12;;;;;;;5.03;2.95;;;10.30;99.90;;;;;;5056782;28;20025;-85
2024/03/30 02:18:38;;;;;;;6.40;4.07;;;10.50;99.90;;;;;;5053720;28;20025;-84
2024/03/30 02:21:04;;;;;;;7.22;3.75;;;11.10;99.90;;;;;;5061085;28;20032;-85
2024/03/30 02:23:29;;;;;;;7.55;3.58;;;10.00;99.90;;;;;;5045499;28;20021;-85
2024/03/30 02:25:59;;;;;;;5.63;3.20;;;11.10;99.90;;;;;;5051064;28;20129;-86
2024/03/30 02:28:27;;;;;;;6.30;3.22;;;10.20;99.90;;;;;;5046908;28;20403;-86
2024/03/30 02:30:53;;;;;;;8.20;3.78;;;9.90;99.90;;;;;;5042619;28;20021;-85
2024/03/30 02:33:19;;;;;;;5.63;3.75;;;9.90;99.90;;;;;;5040436;28;20030;-86
2024/03/30 02:35:45;;;;;;;6.53;4.00;;;;;;;;;;5063086;28;20491;-86
2024/03/30 02:38:11;;;;;;;6.88;3.90;;;9.90;99.90;;;;;;5057692;28;20021;-86
2024/03/30 02:40:37;;;;;;;18.35;3.42;;;9.90;99.90;;;;;;5052942;28;20529;-85
2024/03/30 02:43:03;;;;;;;5.45;3.45;;;9.90;99.90;;;;;;5059006;28;20025;-87
2024/03/30 02:45:29;;;;;;;5.45;3.63;;;9.90;99.90;;;;;;5063136;28;20037;-86
2024/03/30 02:47:54;;;;;;;6.25;3.50;;;10.50;99.90;;;;;;5065678;28;20031;-84
2024/03/30 02:50:20;;;;;;;5.32;3.40;;;9.90;99.90;;;;;;5052770;28;20078;-87
2024/03/30 02:52:46;;;;;;;6.85;3.83;;;10.50;99.90;;;;;;5061682;28;20095;-87
2024/03/30 02:55:12;;;;;;;5.03;3.38;;;;;;;;;;5049534;28;20033;-85
2024/03/30 02:57:38;;;;;;;5.90;3.75;;;;;;;;;;5053917;28;20021;-86
2024/03/30 03:00:08;;;;;;;7.53;3.42;;;9.90;99.90;;;;;;5045220;28;20021;-85
2024/03/30 03:02:34;;;;;;;7.55;3.60;;;9.90;99.90;;;;;;5051429;28;20090;-87
2024/03/30 03:04:59;;;;;;;6.78;3.75;;;10.00;99.90;;;;;;5066985;28;20037;-87
2024/03/30 03:07:25;;;;;;;7.38;3.67;;;10.40;99.90;;;;;;5050156;28;20120;-86
2024/03/30 03:09:51;;;;;;;4.75;3.45;;;;;;;;;;5041871;28;20021;-87
2024/03/30 03:12:16;;;;;;;8.27;4.20;;;9.90;99.90;;;;;;5058568;28;20574;-88
2024/03/30 03:14:42;;;;;;;6.43;3.92;;;;;;;;;;5051312;28;20025;-88
2024/03/30 03:17:08;;;;;;;4.97;3.72;;;;;;;;;;5045771;28;20029;-87
2024/03/30 03:19:34;;;;;;;7.70;3.88;;;9.80;99.90;;;;;;5052553;28;20021;-87
2024/03/30 03:21:59;;;;;;;6.93;3.88;;;9.80;99.90;;;;;;5040810;28;20397;-87
2024/03/30 03:24:25;;;;;;;6.05;3.90;;;9.80;99.90;;;;;;5043453;28;20033;-86
2024/03/30 03:26:51;;;;;;;7.30;4.75;;;;;;;;;;5054137;28;20095;-88
2024/03/30 03:29:17;;;;;;;7.60;4.10;;;;;;;;;;5040503;28;20037;-87
2024/03/30 03:31:43;;;;;;;9.30;4.40;;;9.70;99.90;;;;;;5046091;28;20044;-88
2024/03/30 03:34:08;;;;;;;9.40;4.20;;;10.30;99.90;;;;;;5035900;28;20078;-88
2024/03/30 03:36:34;;;;;;;6.43;4.00;;;9.60;99.90;;;;;;5040821;28;20029;-87
2024/03/30 03:38:59;;;;;;;7.43;3.70;;;9.50;99.90;;;;;;5056180;28;20029;-88
2024/03/30 03:41:25;;;;;;;7.18;4.00;;;9.60;99.90;;;;;;5052713;28;20091;-87
2024/03/30 03:43:50;;;;;;;8.55;3.90;;;9.90;99.90;;;;;;5054405;28;20021;-87
2024/03/30 03:46:16;;;;;;;6.75;3.85;;;9.60;99.90;;;;;;5047799;28;20116;-87
2024/03/30 03:48:42;;;;;;;6.20;4.03;;;10.50;99.90;;;;;;5039878;28;20079;-89
2024/03/30 03:51:09;;;;;;;7.68;4.10;;;;;;;;;;5070957;28;20521;-88
2024/03/30 03:53:34;;;;;;;4.88;3.70;;;9.60;99.90;;;;;;5063671;28;20025;-87
2024/03/30 03:56:00;;;;;;;6.07;3.92;;;10.20;99.90;;;;;;5052504;28;20093;-87
2024/03/30 03:58:26;;;;;;;7.50;4.18;;;9.60;99.90;;;;;;5067373;28;20032;-88
2024/03/30 04:00:51;;;;;;;7.88;4.07;;;9.60;99.90;;;;;;5038828;28;20048;-87
2024/03/30 04:03:17;;;;;;;4.55;3.50;;;9.60;99.90;;;;;;5024260;28;20044;-86
2024/03/30 04:05:43;;;;;;;5.03;3.65;;;10.20;99.90;;;;;;5036112;28;20029;-86
2024/03/30 04:08:09;;;;;;;7.80;4.35;;;;;;;;;;5022255;28;20026;-87
2024/03/30 04:10:34;;;;;;;6.05;3.65;;;9.60;99.90;;;;;;5055885;28;20025;-88
2024/03/30 04:13:00;;;;;;;6.22;4.20;;;9.70;99.90;;;;;;5044700;28;20387;-85
2024/03/30 04:15:25;;;;;;;9.57;4.80;;;9.60;99.90;;;;;;5052361;28;20087;-87
2024/03/30 04:17:52;;;;;;;7.22;4.53;;;9.60;99.90;;;;;;5034372;28;20040;-85
2024/03/30 04:20:18;;;;;;;9.02;4.47;;;10.40;99.90;;;;;;5056745;28;20052;-86
2024/03/30 04:22:43;;;;;;;8.70;4.70;;;10.60;99.90;;;;;;5055469;28;20044;-87
2024/03/30 04:25:09;;;;;;;7.85;5.63;;;10.60;99.90;;;;;;5041057;28;20024;-86
2024/03/30 04:27:34;;;;;;;10.43;5.00;;;10.40;99.90;;;;;;5038428;28;20029;-86
2024/03/30 04:30:01;;;;;;;10.60;4.80;;;11.40;99.90;;;;;;5041293;28;20090;-87
2024/03/30 04:32:27;;;;;;;8.80;5.35;;;9.50;99.90;;;;;;5060450;28;20025;-85
2024/03/30 04:34:53;;;;;;;10.45;4.32;;;9.50;99.90;;;;;;5033301;28;20120;-86
2024/03/30 04:37:19;;;;;;;9.02;4.82;;;9.50;99.90;;;;;;5039040;28;20107;-87
2024/03/30 04:39:44;;;;;;;9.27;5.07;;;9.50;99.90;;;;;;5052258;28;20552;-86
2024/03/30 04:42:10;;;;;;;9.10;4.93;;;9.50;99.90;;;;;;5040007;28;20013;-85
2024/03/30 04:44:36;;;;;;;7.72;5.15;;;9.50;99.90;;;;;;5045713;28;20051;-83
2024/03/30 04:47:03;;;;;;;8.63;4.50;;;9.60;99.90;;;;;;5042476;28;20390;-83
2024/03/30 04:49:28;;;;;;;7.70;4.75;;;9.50;99.90;;;;;;5045051;28;20074;-86
2024/03/30 04:51:54;;;;;;;8.07;4.90;;;10.80;99.90;;;;;;5034439;28;20025;-87
2024/03/30 04:54:20;;;;;;;10.20;5.32;;;9.90;99.90;;;;;;5039317;28;20198;-87
2024/03/30 04:56:45;;;;;;;7.30;5.22;;;10.50;99.90;;;;;;5039681;28;20029;-86
2024/03/30 04:59:11;;;;;;;7.05;4.88;;;;;;;;;;5041739;28;20025;-87
2024/03/30 05:01:37;;;;;;;8.15;5.07;;;9.40;99.90;;;;;;5058001;28;20386;-87
2024/03/30 05:04:04;;;;;;;8.60;5.20;;;;;;;;;;5056494;28;20035;-86
2024/03/30 05:06:29;;;;;;;9.20;5.45;;;9.40;99.90;;;;;;5051837;28;20084;-87
2024/03/30 05:08:55;;;;;;;9.68;5.78;;;9.40;99.90;;;;;;5059275;28;20495;-86
2024/03/30 05:11:20;;;;;;;12.38;5.53;;;9.50;99.90;;;;;;5055791;28;20021;-84
2024/03/30 05:13:46;;;;;;;7.95;5.10;;;9.50;99.90;;;;;;5056088;28;20060;-88
2024/03/30 05:16:12;;;;;;;10.75;5.28;;;9.40;99.90;;;;;;5058239;28;20031;-87
2024/03/30 05:18:37;;;;;;;8.52;5.60;;;10.00;99.90;;;;;;5058025;28;20021;-87
2024/03/30 05:21:03;;;;;;;9.00;5.50;;;9.40;99.90;;;;;;5027239;28;20021;-85
2024/03/30 05:23:33;;;;;;;8.15;5.20;;;9.40;99.90;;;;;;5042171;28;20518;-88
2024/03/30 05:26:02;;;;;;;8.98;5.45;;;9.40;99.90;;;;;;5041508;28;20090;-87
2024/03/30 05:28:32;;;;;;;7.55;5.07;;;9.40;99.90;;;;;;5039913;28;20512;-86
2024/03/30 05:30:59;;;;;;;;;;;9.40;99.90;;;;;;5040369;28;20563;-87
2024/03/30 05:33:26;;;;;;;9.20;4.90;;;9.70;99.90;;;;;;5058661;28;20251;-87
2024/03/30 05:35:54;;;;;;;7.65;4.90;;;9.80;99.90;;;;;;5054621;28;20106;-87
2024/03/30 05:38:21;;;;;;;7.15;4.78;;;9.50;99.90;;;;;;5046787;28;20025;-85
2024/03/30 05:40:48;;;;;;;7.22;4.68;;;10.00;99.90;;;;;;5042971;28;20037;-86
2024/03/30 05:43:13;;;;;;;8.63;4.90;;;10.30;99.90;;;;;;5040167;28;20051;-87
2024/03/30 05:45:46;;;;;;;9.45;5.47;;;10.10;99.90;;;;;;5051363;28;20034;-88
2024/03/30 05:48:12;;;;;;;8.20;5.68;;;9.50;99.90;;;;;;5052184;28;20518;-89
2024/03/30 05:50:38;;;;;;;8.57;5.53;;;9.60;99.90;;;;;;5042045;28;20037;-88
2024/03/30 05:53:05;;;;;;;10.23;5.13;;;9.60;99.90;;;;;;5037194;28;20032;-85
2024/03/30 05:55:30;;;;;;;10.05;5.10;;;9.60;99.90;;;;;;5054069;28;20544;-87
2024/03/30 05:57:58;;;;;;;9.57;4.93;;;11.70;99.90;;;;;;5052522;28;20044;-87
2024/03/30 06:00:25;;;;;;;7.18;4.53;;;9.60;99.90;;;;;;5065110;28;20563;-87
2024/03/30 06:02:51;;;;;;;11.25;5.03;;;11.00;99.90;;;;;;5043579;28;20022;-87
2024/03/30 06:05:16;;;;;;;7.70;5.00;;;11.00;99.90;;;;;;5062876;28;20032;-86
2024/03/30 06:07:42;;;;;;;8.07;5.25;;;11.00;99.90;;;;;;5036985;28;20483;-89
2024/03/30 06:10:09;;;;;;;7.20;4.70;;;10.00;99.90;;;;;;5056819;28;20537;-87
2024/03/30 06:12:36;;;;;;;8.43;4.10;;;10.20;99.90;;;;;;5044961;28;20081;-85
2024/03/30 06:15:02;;;;;;;10.43;4.80;;;9.90;99.90;;;;;;5054418;28;20025;-87
2024/03/30 06:17:28;;;;;;;7.38;4.63;;;9.80;99.90;;;;;;5042434;28;20044;-87
2024/03/30 06:19:55;;;;;;;5.80;3.80;;;10.70;99.90;;;;;;5038395;28;20022;-88
2024/03/30 06:22:23;;;;;;;8.05;3.72;;;9.90;99.90;;;;;;5059077;28;20026;-87
2024/03/30 06:24:49;;;;;;;6.53;3.63;;;9.80;99.90;;;;;;5047620;28;20217;-86
2024/03/30 06:27:15;;;;;;;10.32;4.18;;;11.10;99.90;;;;;;5051179;28;20075;-89
2024/03/30 06:29:41;;;;;;;8.15;3.60;;;;;;;;;;5056253;28;20437;-88
2024/03/30 06:32:06;;;;;;;7.15;3.83;;;9.90;99.90;;;;;;5048308;28;20029;-86
2024/03/30 06:34:33;;;;;;;7.35;3.95;;;10.00;99.90;;;;;;5042180;28;20029;-86
2024/03/30 06:36:58;;;;;;;6.05;3.63;;;10.90;99.90;;;;;;5040997;28;20029;-86
2024/03/30 06:39:25;;;;;;;8.70;3.65;;;;;;;;;;5045091;28;20480;-86
2024/03/30 06:44:35;;;;;;;6.75;3.50;;;10.60;99.90;;;;;;5043044;28;20040;-88
2024/03/30 06:47:01;;;;;;;6.30;3.63;;;10.10;99.90;;;;;;5041913;28;20029;-86
2024/03/30 06:49:26;;;;;;;7.57;3.90;;;10.70;99.90;;;;;;5023737;28;20044;-86
2024/03/30 06:51:52;;;;;;;7.53;3.72;;;10.20;99.90;;;;;;5027433;28;20072;-88
2024/03/30 06:54:20;;;;;;;6.85;3.28;;;11.30;99.90;;;;;;5021660;28;20547;-88
2024/03/30 06:56:45;;;;;;;5.20;3.47;;;10.50;99.90;;;;;;5040734;28;20025;-86
2024/03/30 06:59:12;;;;;;;5.22;2.97;;;10.20;99.90;;;;;;5043952;28;20040;-88
2024/03/30 07:01:38;;;;;;;4.97;3.10;;;10.30;99.90;;;;;;5045997;28;20267;-89
2024/03/30 07:04:04;;;;;;;8.27;3.03;;;10.30;99.90;;;;;;5043198;28;20065;-86
2024/03/30 07:06:29;;;;;;;4.85;2.95;;;10.60;99.90;;;;;;5046370;28;20048;-84
2024/03/30 07:08:58;;;;;;;5.47;3.00;;;10.90;99.90;;;;;;5040388;28;20029;-88
2024/03/30 07:11:24;;;;;;;6.53;2.72;;;10.40;99.90;;;;;;5027837;28;20376;-88
2024/03/30 07:13:50;;;;;;;7.20;2.83;;;11.60;99.90;;;;;;5027739;28;20115;-87
2024/03/30 07:16:16;;;;;;;5.43;2.75;;;10.60;99.90;;;;;;5050993;28;20029;-87
2024/03/30 07:18:51;;;;;;;7.45;2.90;;;10.40;99.90;;;;;;5043586;23;20520;-87
2024/03/30 07:21:18;;;;;;;7.95;2.95;;;10.60;99.90;;;;;;5056956;28;20025;-86
2024/03/30 07:23:44;;;;;;;7.07;2.45;;;10.70;99.90;;;;;;5043962;28;20039;-88
2024/03/30 07:26:10;;;;;;;5.43;2.47;;;10.60;99.90;;;;;;5060488;28;20275;-87
2024/03/30 07:28:37;;;;;;;5.57;2.85;;;10.90;99.90;;;;;;5057084;28;20479;-88
2024/03/30 07:31:06;;;;;;;4.00;2.47;;;10.80;99.90;;;;;;5055658;28;20039;-90
2024/03/30 07:33:35;;;;;;;6.87;2.83;;;10.80;99.90;;;;;;5055643;28;20021;-89
2024/03/30 07:36:01;;;;;;;7.78;2.53;;;10.80;99.90;;;;;;5037395;28;20331;-91
2024/03/30 07:38:31;;;;;;;4.68;2.40;;;10.90;99.90;;;;;;5042375;28;20483;-90
2024/03/30 07:40:57;;;;;;;6.95;2.30;;;13.30;99.90;;;;;;5056333;28;20021;-90
2024/03/30 07:43:23;;;;;;;6.22;2.72;;;10.90;99.90;;;;;;5050767;28;20032;-89
2024/03/30 07:45:49;;;;;;;6.97;2.75;;;12.00;99.90;;;;;;5053286;28;20442;-89
2024/03/30 07:48:14;;;;;;;4.82;2.38;;;12.10;99.90;;;;;;5045825;28;20086;-88
2024/03/30 07:50:40;;;;;;;6.10;2.50;;;11.10;99.90;;;;;;5046017;28;20131;-86
2024/03/30 07:53:06;;;;;;;8.45;2.75;;;11.10;99.90;;;;;;5061872;28;20024;-87
2024/03/30 07:55:32;;;;;;;5.38;2.30;;;11.10;99.90;;;;;;5055258;28;20026;-88
2024/03/30 07:57:58;;;;;;;10.77;2.47;;;11.20;99.90;;;;;;5054964;28;20171;-90
2024/03/30 08:00:24;;;;;;;6.32;2.25;;;12.00;99.90;;;;;;5048752;28;20029;-88
2024/03/30 08:02:50;;;;;;;5.57;2.45;;;11.30;99.90;;;;;;5058620;28;20096;-86
2024/03/30 08:05:16;;;;;;;7.53;2.60;;;11.40;99.90;;;;;;5057504;28;20530;-87
2024/03/30 08:07:42;;;;;;;8.93;3.05;;;11.40;99.90;;;;;;5066564;28;20039;-87
2024/03/30 08:10:08;;;;;;;8.65;2.70;;;11.50;99.90;;;;;;5068613;28;20029;-88
2024/03/30 08:12:34;;;;;;;9.15;2.85;;;;;;;;;;5063270;28;20051;-88
2024/03/30 08:14:59;;;;;;;7.70;2.60;;;11.60;99.90;;;;;;5064407;28;20036;-89
2024/03/30 08:17:25;;;;;;;10.30;2.65;;;12.50;99.90;;;;;;5036181;28;20029;-88
2024/03/30 08:19:51;;;;;;;5.53;2.25;;;;;;;;;;5057477;28;20103;-87
2024/03/30 08:22:17;;;;;;;6.63;2.65;;;11.70;99.90;;;;;;5054484;28;20039;-89
2024/03/30 08:24:42;;;;;;;4.80;2.30;;;11.80;99.90;;;;;;5052143;28;20084;-87
2024/03/30 08:27:08;;;;;;;3.97;2.20;;;11.80;99.90;;;;;;5053666;28;20075;-87
2024/03/30 08:29:33;;;;;;;5.55;2.10;;;12.00;99.90;;;;;;5052957;28;20505;-87
2024/03/30 08:31:59;;;;;;;6.47;2.42;;;12.10;99.90;;;;;;5060659;28;20063;-88
2024/03/30 08:34:25;;;;;;;5.28;2.53;;;11.80;99.90;;;;;;5053512;28;20052;-89
2024/03/30 08:36:50;;;;;;;6.00;2.35;;;12.00;99.90;;;;;;5051623;28;20093;-87
2024/03/30 08:39:16;;;;;;;6.65;2.92;;;12.10;99.90;;;;;;5060527;28;20174;-86
2024/03/30 08:41:41;;;;;;;7.47;2.13;;;12.10;99.90;;;;;;5048341;28;20170;-87
2024/03/30 08:44:07;;;;;;;9.57;2.50;;;12.10;99.90;;;;;;5058050;28;20032;-88
2024/03/30 08:46:33;;;;;;;6.88;2.25;;;12.20;99.90;;;;;;5051683;28;20318;-85
2024/03/30 08:49:05;;;;;;;6.22;1.90;;;12.30;99.90;;;;;;5053657;28;20455;-83
2024/03/30 08:51:31;;;;;;;5.40;2.33;;;12.20;99.90;;;;;;5048797;28;20544;-87
2024/03/30 08:54:04;;;;;;;8.02;2.20;;;12.20;99.90;;;;;;5055479;28;20028;-86
2024/03/30 08:56:33;;;;;;;5.53;2.70;;;12.30;99.90;;;;;;5050596;28;20052;-89
2024/03/30 08:58:59;;;;;;;10.18;2.65;;;12.40;99.90;;;;;;5048563;28;20038;-85
2024/03/30 09:01:25;;;;;;;4.93;2.85;;;12.60;99.90;;;;;;5052332;28;20021;-86
2024/03/30 09:03:51;;;;;;;5.63;2.65;;;12.40;99.90;;;;;;5055177;28;20037;-85
2024/03/30 09:06:17;;;;;;;7.13;3.20;;;12.60;99.90;;;;;;5057318;28;20029;-87
2024/03/30 09:08:44;;;;;;;7.35;2.65;;;13.10;99.90;;;;;;5049474;28;20088;-83
2024/03/30 09:11:10;;;;;;;7.88;3.40;;;12.60;99.90;;;;;;5055483;28;20406;-86
2024/03/30 09:13:37;;;;;;;9.32;3.35;;;12.60;99.90;;;;;;5052643;28;20028;-85
2024/03/30 09:16:03;;;;;;;8.80;3.35;;;12.50;99.90;;;;;;5058719;28;20038;-83
2024/03/30 09:18:29;;;;;;;8.57;3.95;;;12.80;99.90;;;;;;5057623;28;20048;-85
2024/03/30 09:20:55;;;;;;;6.72;3.35;;;12.50;99.90;;;;;;5054533;28;20016;-86
2024/03/30 09:23:21;;;;;;;8.88;3.90;;;12.50;99.90;;;;;;5058035;28;20021;-86
2024/03/30 09:25:47;;;;;;;17.83;4.45;;;12.40;99.90;;;;;;5058557;28;20104;-88
2024/03/30 09:28:13;;;;;;;6.93;2.90;;;12.50;99.90;;;;;;5051109;28;20514;-86
2024/03/30 09:30:38;;;;;;;5.90;2.92;;;13.30;99.90;;;;;;5056125;28;20036;-88
2024/03/30 09:33:04;;;;;;;6.15;3.15;;;12.40;99.90;;;;;;5062359;28;20043;-86
2024/03/30 09:35:30;;;;;;;8.52;3.15;;;12.40;99.90;;;;;;5056883;28;20017;-87
2024/03/30 09:37:56;;;;;;;7.53;2.85;;;12.40;99.90;;;;;;5058600;28;20104;-84
2024/03/30 09:40:21;;;;;;;7.18;2.67;;;12.40;99.90;;;;;;5058473;28;20040;-86
2024/03/30 09:42:49;;;;;;;12.48;2.80;;;12.40;99.90;;;;;;5065428;28;20021;-86
2024/03/30 09:45:15;;;;;;;6.88;2.88;;;12.40;99.90;;;;;;5059722;28;20140;-88
2024/03/30 09:47:42;;;;;;;7.72;2.78;;;13.10;99.90;;;;;;5059298;28;20056;-86
2024/03/30 09:50:09;;;;;;;9.15;3.17;;;13.10;99.90;;;;;;5052248;28;20037;-87
2024/03/30 09:52:39;;;;;;;7.15;2.60;;;12.50;99.90;;;;;;5050261;28;20312;-86
2024/03/30 09:55:10;;;;;;;6.18;2.10;;;12.40;99.90;;;;;;5059150;28;20058;-84
2024/03/30 09:57:40;;;;;;;6.82;2.45;;;12.60;99.90;;;;;;5050933;28;20108;-86
2024/03/30 10:00:09;;;;;;;6.45;2.70;;;12.70;99.90;;;;;;5048821;28;20104;-84
2024/03/30 10:02:35;;;;;;;7.32;2.63;;;12.50;99.90;;;;;;5052736;28;20064;-86
2024/03/30 10:05:00;;;;;;;13.38;2.55;;;12.50;99.90;;;;;;5047970;28;20025;-85
2024/03/30 10:07:49;;;;;;;7.78;2.58;;;12.60;99.90;;;;;;5046220;28;20021;-87
2024/03/30 10:10:19;;;;;;;6.35;2.70;;;12.60;99.90;;;;;;5050725;28;20029;-89
2024/03/30 10:13:00;;;;;;;5.57;2.00;;;12.70;99.90;;;;;;5048431;28;20024;-86
2024/03/30 10:15:38;;;;;;;8.90;2.05;;;12.50;99.90;;;;;;5046327;28;20151;-85
2024/03/30 10:18:03;;;;;;;6.10;2.20;;;12.90;99.90;;;;;;5058882;28;20050;-82
2024/03/30 10:20:29;;;;;;;8.88;2.90;;;12.60;99.90;;;;;;5054696;28;20113;-82
2024/03/30 10:22:56;;;;;;;10.40;2.55;;;12.60;99.90;;;;;;5049867;28;20074;-85
2024/03/30 10:25:24;;;;;;;9.82;3.13;;;12.50;99.90;;;;;;5055621;28;20111;-82
2024/03/30 10:27:49;;;;;;;10.73;3.17;;;12.60;99.90;;;;;;5053536;28;20033;-81
2024/03/30 10:30:16;;;;;;;16.08;5.32;;;12.60;99.90;;;;;;5052848;28;20039;-80
2024/03/30 10:32:44;;;;;;;9.57;3.95;;;12.70;99.90;;;;;;5048556;28;20056;-80
2024/03/30 10:35:19;;;;;;;6.45;2.65;;;12.70;99.90;;;;;;5043297;28;20057;-83
2024/03/30 10:37:46;;;;;;;11.57;3.97;;;12.70;99.90;;;;;;5044789;28;20047;-80
2024/03/30 10:40:13;;;;;;;6.47;3.13;;;12.80;99.90;;;;;;5045582;28;20044;-80
2024/03/30 10:42:39;;;;;;;8.15;2.70;;;12.80;99.90;;;;;;5054928;28;20460;-80
2024/03/30 10:45:06;;;;;;;7.82;2.60;;;12.70;99.90;;;;;;5053515;28;20043;-80
2024/03/30 10:47:34;;;;;;;7.32;3.47;;;12.80;99.90;;;;;;5053628;28;20088;-81
2024/03/30 10:50:00;;;;;;;11.10;2.70;;;12.70;99.90;;;;;;5039222;28;20595;-81
2024/03/30 10:52:27;;;;;;;5.57;2.75;;;;;;;;;;5050600;28;20116;-80
2024/03/30 10:54:53;;;;;;;6.78;3.17;;;;;;;;;;5054534;28;21074;-79
2024/03/30 10:57:19;;;;;;;8.85;2.90;;;;;;;;;;5050515;28;20029;-83
2024/03/30 10:59:46;;;;;;;10.15;3.17;;;12.70;99.90;;;;;;5049293;28;20088;-84
2024/03/30 11:02:39;;;;;;;6.18;2.95;;;12.70;99.90;;;;;;5050495;28;20029;-82
2024/03/30 11:05:07;;;;;;;5.53;2.80;;;12.60;99.90;;;;;;5051605;28;20072;-82
2024/03/30 11:07:37;;;;;;;9.45;3.40;;;12.60;99.90;;;;;;5052566;28;20036;-82
2024/03/30 11:10:06;;;;;;;6.57;3.23;;;12.70;99.90;;;;;;5047586;28;20033;-81
2024/03/30 11:12:33;;;;;;;9.13;3.80;;;12.60;99.90;;;;;;5051051;28;20025;-81
2024/03/30 11:14:59;;;;;;;11.85;4.20;;;12.60;99.90;;;;;;5050293;28;20044;-83
2024/03/30 11:17:36;;;;;;;13.70;3.35;;;12.70;99.90;;;;;;5052378;28;20033;-80
2024/03/30 11:20:21;;;;;;;6.50;3.00;;;12.60;99.90;;;;;;5055730;28;20323;-83
2024/03/30 11:23:17;;;;;;;9.88;4.13;;;12.60;99.90;;;;;;5049467;28;20021;-82
2024/03/30 11:25:49;;;;;;;9.30;3.47;;;12.60;99.90;;;;;;5045204;28;20902;-84
2024/03/30 11:28:29;;;;;;;10.77;3.58;;;12.60;99.90;;;;;;5051802;28;20033;-82
2024/03/30 11:31:08;;;;;;;11.40;3.78;;;12.60;99.90;;;;;;5049241;28;20024;-81
2024/03/30 11:33:43;;;;;;;10.25;3.35;;;12.60;99.90;;;;;;5051432;28;20133;-81
2024/03/30 11:36:31;;;;;;;11.70;3.83;;;12.60;99.90;;;;;;5055342;28;20064;-81
2024/03/30 11:39:11;;;;;;;14.98;3.97;;;12.60;99.90;;;;;;5045413;28;20053;-82
2024/03/30 11:41:40;;;;;;;13.20;4.32;;;12.60;99.90;;;;;;5043844;28;21122;-83
2024/03/30 11:44:10;;;;;;;12.68;3.85;;;12.60;99.90;;;;;;5065213;28;20075;-83
2024/03/30 11:46:41;;;;;;;15.48;5.55;;;12.70;99.90;;;;;;5049387;28;20036;-83
2024/03/30 11:49:08;;;;;;;8.82;4.28;;;12.60;99.90;;;;;;5059249;28;20120;-84
2024/03/30 11:51:39;;;;;;;7.72;3.63;;;12.70;99.90;;;;;;5054088;28;20040;-84
2024/03/30 11:54:21;;;;;;;12.75;4.22;;;11.80;99.90;;;;;;5069494;28;20029;-85
2024/03/30 11:56:54;;;;;;;18.85;4.45;;;12.70;99.90;;;;;;5055613;28;20021;-86
2024/03/30 11:59:20;;;;;;;23.40;4.38;;;12.80;99.90;;;;;;5051044;28;20021;-83
2024/03/30 12:01:45;;;;;;;18.67;4.30;;;12.80;99.90;;;;;;5055489;28;20714;-83
2024/03/30 12:04:12;;;;;;;20.70;4.78;;;12.80;99.90;;;;;;5064058;28;20029;-83
2024/03/30 12:06:38;;;;;;;19.73;4.05;;;12.80;99.90;;;;;;5065139;28;20021;-85
2024/03/30 12:09:04;;;;;;;17.77;3.50;;;12.90;99.90;;;;;;5055374;28;20039;-84
2024/03/30 12:11:29;;;;;;;19.10;3.90;;;12.90;99.90;;;;;;5059006;28;20049;-83
2024/03/30 12:13:56;;;;;;;18.30;3.30;;;13.60;99.90;;;;;;5061579;28;20025;-84
2024/03/30 12:16:22;;;;;;;14.35;3.08;;;13.10;99.90;;;;;;5068208;28;20028;-84
2024/03/30 12:18:48;;;;;;;17.40;3.03;;;12.90;99.90;;;;;;5057667;28;20021;-84
2024/03/30 12:21:14;;;;;;;14.52;2.90;;;12.90;99.90;;;;;;5065195;28;20039;-86
2024/03/30 12:23:41;;;;;;;21.17;3.78;;;12.90;99.90;;;;;;5061990;28;20025;-85
2024/03/30 12:26:08;;;;;;;13.90;3.35;;;12.90;99.90;;;;;;5053162;28;20457;-85
2024/03/30 12:28:34;;;;;;;15.13;4.50;;;12.90;99.90;;;;;;5056850;28;20075;-85
2024/03/30 12:31:03;;;;;;;25.15;4.10;;;12.80;99.90;;;;;;5051602;28;20029;-84
2024/03/30 12:33:31;;;;;;;18.42;3.88;;;12.90;99.90;;;;;;5059025;28;20174;-84
2024/03/30 12:35:57;;;;;;;18.05;3.40;;;12.90;99.90;;;;;;5061973;28;20029;-85
2024/03/30 12:38:23;;;;;;;20.92;3.25;;;12.80;99.90;;;;;;5060097;28;20077;-85
2024/03/30 12:40:51;;;;;;;21.48;3.92;;;12.90;99.90;;;;;;5059476;28;20029;-84
2024/03/30 12:43:17;;;;;;;20.55;4.28;;;12.90;99.90;;;;;;5066334;28;20045;-82
2024/03/30 12:45:43;;;;;;;17.65;3.97;;;;;;;;;;5060736;28;20048;-83
2024/03/30 12:48:10;;;;;;;17.85;3.60;;;12.90;99.90;;;;;;5062238;28;20109;-84
2024/03/30 12:50:37;;;;;;;15.68;4.03;;;12.90;99.90;;;;;;5056327;28;20398;-85
2024/03/30 12:53:03;;;;;;;21.52;3.90;;;12.90;99.90;;;;;;5056902;28;20517;-82
2024/03/30 12:55:29;;;;;;;13.02;3.13;;;12.90;99.90;;;;;;5057283;28;20410;-84
2024/03/30 12:57:56;;;;;;;15.90;3.25;;;12.90;99.90;;;;;;5057201;28;20020;-84